sensor_id;sensor_type;location;lat;lon;timestamp;P1;durP1;ratioP1;P2;durP2;ratioP2
21681;SDS011;11002;48.256;10.084;2023-03-01T00:01:00;20.35;;;11.43;;
21681;SDS011;11002;48.256;10.084;2023-03-01T00:03:29;17.67;;;11.07;;
21681;SDS011;11002;48.256;10.084;2023-03-01T00:05:57;17.67;;;11.07;;
21681;SDS011;11002;48.256;10.084;2023-03-01T00:08:25;18.83;;;11.05;;
21681;SDS011;11002;48.256;10.084;2023-03-01T00:10:59;17.15;;;11.13;;
21681;SDS011;11002;48.256;10.084;2023-03-01T00:13:27;17.13;;;11.15;;
21681;SDS011;11002;48.256;10.084;2023-03-01T00:15:55;18.23;;;11.20;;
21681;SDS011;11002;48.256;10.084;2023-03-01T00:18:23;17.70;;;11.68;;
21681;SDS011;11002;48.256;10.084;2023-03-01T00:20:52;15.27;;;11.25;;
21681;SDS011;11002;48.256;10.084;2023-03-01T00:23:21;21.40;;;12.05;;
21681;SDS011;11002;48.256;10.084;2023-03-01T00:25:48;16.70;;;11.02;;
21681;SDS011;11002;48.256;10.084;2023-03-01T00:28:16;17.05;;;11.70;;
21681;SDS011;11002;48.256;10.084;2023-03-01T00:30:43;20.33;;;12.55;;
21681;SDS011;11002;48.256;10.084;2023-03-01T00:33:11;16.55;;;10.93;;
21681;SDS011;11002;48.256;10.084;2023-03-01T00:35:39;20.42;;;11.90;;
21681;SDS011;11002;48.256;10.084;2023-03-01T00:38:08;18.75;;;11.75;;
21681;SDS011;11002;48.256;10.084;2023-03-01T00:40:35;18.98;;;11.68;;
21681;SDS011;11002;48.256;10.084;2023-03-01T00:43:03;21.60;;;12.10;;
21681;SDS011;11002;48.256;10.084;2023-03-01T00:45:32;21.50;;;11.60;;
21681;SDS011;11002;48.256;10.084;2023-03-01T00:47:59;20.92;;;12.95;;
21681;SDS011;11002;48.256;10.084;2023-03-01T00:50:27;22.80;;;12.98;;
21681;SDS011;11002;48.256;10.084;2023-03-01T00:52:54;22.02;;;12.45;;
21681;SDS011;11002;48.256;10.084;2023-03-01T00:55:24;21.70;;;12.20;;
21681;SDS011;11002;48.256;10.084;2023-03-01T00:57:52;21.30;;;12.13;;
21681;SDS011;11002;48.256;10.084;2023-03-01T01:00:19;19.27;;;11.82;;
21681;SDS011;11002;48.256;10.084;2023-03-01T01:02:47;21.75;;;12.90;;
21681;SDS011;11002;48.256;10.084;2023-03-01T01:05:15;22.38;;;12.45;;
21681;SDS011;11002;48.256;10.084;2023-03-01T01:07:46;18.58;;;12.13;;
21681;SDS011;11002;48.256;10.084;2023-03-01T01:10:13;19.08;;;12.15;;
21681;SDS011;11002;48.256;10.084;2023-03-01T01:12:44;19.50;;;12.20;;
21681;SDS011;11002;48.256;10.084;2023-03-01T01:15:12;18.65;;;12.23;;
21681;SDS011;11002;48.256;10.084;2023-03-01T01:17:42;22.17;;;12.73;;
21681;SDS011;11002;48.256;10.084;2023-03-01T01:20:10;21.27;;;12.45;;
21681;SDS011;11002;48.256;10.084;2023-03-01T01:22:38;22.27;;;12.48;;
21681;SDS011;11002;48.256;10.084;2023-03-01T01:25:06;19.92;;;11.57;;
21681;SDS011;11002;48.256;10.084;2023-03-01T01:27:33;18.17;;;11.85;;
21681;SDS011;11002;48.256;10.084;2023-03-01T01:30:03;19.10;;;13.05;;
21681;SDS011;11002;48.256;10.084;2023-03-01T01:32:31;27.30;;;14.27;;
21681;SDS011;11002;48.256;10.084;2023-03-01T01:34:58;24.17;;;12.68;;
21681;SDS011;11002;48.256;10.084;2023-03-01T01:37:25;21.20;;;11.63;;
21681;SDS011;11002;48.256;10.084;2023-03-01T01:39:56;20.23;;;12.52;;
21681;SDS011;11002;48.256;10.084;2023-03-01T01:42:25;21.33;;;13.43;;
21681;SDS011;11002;48.256;10.084;2023-03-01T01:47:53;20.75;;;12.80;;
21681;SDS011;11002;48.256;10.084;2023-03-01T01:50:24;21.85;;;12.88;;
21681;SDS011;11002;48.256;10.084;2023-03-01T01:52:52;19.08;;;13.07;;
21681;SDS011;11002;48.256;10.084;2023-03-01T01:55:21;23.77;;;13.73;;
21681;SDS011;11002;48.256;10.084;2023-03-01T01:57:51;20.15;;;12.55;;
21681;SDS011;11002;48.256;10.084;2023-03-01T02:00:21;20.17;;;13.02;;
21681;SDS011;11002;48.256;10.084;2023-03-01T02:02:52;23.90;;;13.40;;
21681;SDS011;11002;48.256;10.084;2023-03-01T02:05:24;21.70;;;13.05;;
21681;SDS011;11002;48.256;10.084;2023-03-01T02:07:59;24.35;;;13.77;;
21681;SDS011;11002;48.256;10.084;2023-03-01T02:10:27;22.27;;;13.50;;
21681;SDS011;11002;48.256;10.084;2023-03-01T02:12:55;24.50;;;14.18;;
21681;SDS011;11002;48.256;10.084;2023-03-01T02:15:23;26.88;;;13.98;;
21681;SDS011;11002;48.256;10.084;2023-03-01T02:17:53;22.73;;;13.65;;
21681;SDS011;11002;48.256;10.084;2023-03-01T02:20:22;21.65;;;13.43;;
21681;SDS011;11002;48.256;10.084;2023-03-01T02:22:59;23.10;;;13.98;;
21681;SDS011;11002;48.256;10.084;2023-03-01T02:25:30;22.63;;;14.48;;
21681;SDS011;11002;48.256;10.084;2023-03-01T02:28:05;23.15;;;13.75;;
21681;SDS011;11002;48.256;10.084;2023-03-01T02:30:39;27.00;;;15.07;;
21681;SDS011;11002;48.256;10.084;2023-03-01T02:33:27;23.17;;;14.48;;
21681;SDS011;11002;48.256;10.084;2023-03-01T02:35:58;22.95;;;14.45;;
21681;SDS011;11002;48.256;10.084;2023-03-01T02:38:27;21.83;;;14.38;;
21681;SDS011;11002;48.256;10.084;2023-03-01T02:40:55;22.83;;;13.65;;
21681;SDS011;11002;48.256;10.084;2023-03-01T02:43:25;26.25;;;14.70;;
21681;SDS011;11002;48.256;10.084;2023-03-01T02:45:59;19.67;;;12.95;;
21681;SDS011;11002;48.256;10.084;2023-03-01T02:48:38;21.65;;;13.90;;
21681;SDS011;11002;48.256;10.084;2023-03-01T02:51:09;23.13;;;13.70;;
21681;SDS011;11002;48.256;10.084;2023-03-01T02:53:45;20.85;;;13.60;;
21681;SDS011;11002;48.256;10.084;2023-03-01T02:56:21;25.33;;;14.57;;
21681;SDS011;11002;48.256;10.084;2023-03-01T02:58:49;21.02;;;13.63;;
21681;SDS011;11002;48.256;10.084;2023-03-01T03:01:19;23.23;;;13.48;;
21681;SDS011;11002;48.256;10.084;2023-03-01T03:03:47;22.10;;;14.25;;
21681;SDS011;11002;48.256;10.084;2023-03-01T03:06:15;23.73;;;13.88;;
21681;SDS011;11002;48.256;10.084;2023-03-01T03:08:43;22.50;;;13.40;;
21681;SDS011;11002;48.256;10.084;2023-03-01T03:11:10;22.23;;;14.32;;
21681;SDS011;11002;48.256;10.084;2023-03-01T03:13:38;22.65;;;14.52;;
21681;SDS011;11002;48.256;10.084;2023-03-01T03:16:14;22.48;;;14.13;;
21681;SDS011;11002;48.256;10.084;2023-03-01T03:18:43;24.02;;;15.05;;
21681;SDS011;11002;48.256;10.084;2023-03-01T03:21:10;22.88;;;14.63;;
21681;SDS011;11002;48.256;10.084;2023-03-01T03:23:39;26.15;;;13.75;;
21681;SDS011;11002;48.256;10.084;2023-03-01T03:26:06;23.25;;;14.27;;
21681;SDS011;11002;48.256;10.084;2023-03-01T03:28:35;21.27;;;14.88;;
21681;SDS011;11002;48.256;10.084;2023-03-01T03:31:05;21.45;;;14.32;;
21681;SDS011;11002;48.256;10.084;2023-03-01T03:33:33;25.35;;;14.52;;
21681;SDS011;11002;48.256;10.084;2023-03-01T03:36:02;23.33;;;15.05;;
21681;SDS011;11002;48.256;10.084;2023-03-01T03:38:30;22.67;;;15.48;;
21681;SDS011;11002;48.256;10.084;2023-03-01T03:41:01;26.52;;;15.23;;
21681;SDS011;11002;48.256;10.084;2023-03-01T03:43:30;25.38;;;13.82;;
21681;SDS011;11002;48.256;10.084;2023-03-01T03:45:58;27.17;;;14.10;;
21681;SDS011;11002;48.256;10.084;2023-03-01T03:48:26;26.30;;;14.70;;
21681;SDS011;11002;48.256;10.084;2023-03-01T03:50:54;24.15;;;13.70;;
21681;SDS011;11002;48.256;10.084;2023-03-01T03:53:25;25.30;;;14.63;;
21681;SDS011;11002;48.256;10.084;2023-03-01T03:55:53;22.77;;;13.82;;
21681;SDS011;11002;48.256;10.084;2023-03-01T03:58:22;22.83;;;14.60;;
21681;SDS011;11002;48.256;10.084;2023-03-01T04:00:52;22.98;;;14.18;;
21681;SDS011;11002;48.256;10.084;2023-03-01T04:03:21;22.23;;;14.70;;
21681;SDS011;11002;48.256;10.084;2023-03-01T04:05:49;25.75;;;14.52;;
21681;SDS011;11002;48.256;10.084;2023-03-01T04:08:17;26.25;;;15.48;;
21681;SDS011;11002;48.256;10.084;2023-03-01T04:10:47;25.92;;;14.95;;
21681;SDS011;11002;48.256;10.084;2023-03-01T04:13:16;25.60;;;15.10;;
21681;SDS011;11002;48.256;10.084;2023-03-01T04:15:46;21.55;;;14.40;;
21681;SDS011;11002;48.256;10.084;2023-03-01T04:18:15;24.10;;;14.50;;
21681;SDS011;11002;48.256;10.084;2023-03-01T04:20:44;22.50;;;14.10;;
21681;SDS011;11002;48.256;10.084;2023-03-01T04:23:12;22.40;;;14.60;;
21681;SDS011;11002;48.256;10.084;2023-03-01T04:25:42;22.38;;;14.35;;
21681;SDS011;11002;48.256;10.084;2023-03-01T04:28:13;19.63;;;13.18;;
21681;SDS011;11002;48.256;10.084;2023-03-01T04:30:40;24.15;;;14.73;;
21681;SDS011;11002;48.256;10.084;2023-03-01T04:33:09;22.27;;;13.85;;
21681;SDS011;11002;48.256;10.084;2023-03-01T04:35:37;20.58;;;13.15;;
21681;SDS011;11002;48.256;10.084;2023-03-01T04:38:05;26.00;;;14.32;;
21681;SDS011;11002;48.256;10.084;2023-03-01T04:40:33;21.83;;;13.45;;
21681;SDS011;11002;48.256;10.084;2023-03-01T04:43:01;22.95;;;14.25;;
21681;SDS011;11002;48.256;10.084;2023-03-01T04:45:30;22.88;;;14.02;;
21681;SDS011;11002;48.256;10.084;2023-03-01T04:47:59;21.10;;;14.60;;
21681;SDS011;11002;48.256;10.084;2023-03-01T04:50:27;25.45;;;15.27;;
21681;SDS011;11002;48.256;10.084;2023-03-01T04:52:54;22.55;;;14.02;;
21681;SDS011;11002;48.256;10.084;2023-03-01T04:55:24;22.45;;;14.38;;
21681;SDS011;11002;48.256;10.084;2023-03-01T04:57:52;26.17;;;15.15;;
21681;SDS011;11002;48.256;10.084;2023-03-01T05:00:19;24.10;;;14.48;;
21681;SDS011;11002;48.256;10.084;2023-03-01T05:02:50;21.98;;;14.57;;
21681;SDS011;11002;48.256;10.084;2023-03-01T05:05:20;25.55;;;14.27;;
21681;SDS011;11002;48.256;10.084;2023-03-01T05:07:51;21.60;;;13.45;;
21681;SDS011;11002;48.256;10.084;2023-03-01T05:10:20;22.38;;;13.63;;
21681;SDS011;11002;48.256;10.084;2023-03-01T05:12:47;23.45;;;14.18;;
21681;SDS011;11002;48.256;10.084;2023-03-01T05:15:15;24.35;;;13.93;;
21681;SDS011;11002;48.256;10.084;2023-03-01T05:17:42;22.13;;;14.18;;
21681;SDS011;11002;48.256;10.084;2023-03-01T05:20:11;20.45;;;13.55;;
21681;SDS011;11002;48.256;10.084;2023-03-01T05:22:39;23.63;;;14.73;;
21681;SDS011;11002;48.256;10.084;2023-03-01T05:25:06;23.80;;;14.43;;
21681;SDS011;11002;48.256;10.084;2023-03-01T05:27:34;22.67;;;14.52;;
21681;SDS011;11002;48.256;10.084;2023-03-01T05:30:02;21.42;;;14.38;;
21681;SDS011;11002;48.256;10.084;2023-03-01T05:32:39;23.02;;;14.68;;
21681;SDS011;11002;48.256;10.084;2023-03-01T05:35:11;22.42;;;14.75;;
21681;SDS011;11002;48.256;10.084;2023-03-01T05:37:40;25.33;;;13.80;;
21681;SDS011;11002;48.256;10.084;2023-03-01T05:40:09;25.77;;;14.18;;
21681;SDS011;11002;48.256;10.084;2023-03-01T05:42:42;26.83;;;15.57;;
21681;SDS011;11002;48.256;10.084;2023-03-01T05:45:10;22.05;;;13.80;;
21681;SDS011;11002;48.256;10.084;2023-03-01T05:47:39;23.50;;;14.73;;
21681;SDS011;11002;48.256;10.084;2023-03-01T05:50:12;21.73;;;13.70;;
21681;SDS011;11002;48.256;10.084;2023-03-01T05:52:44;20.52;;;13.70;;
21681;SDS011;11002;48.256;10.084;2023-03-01T05:55:11;24.98;;;13.95;;
21681;SDS011;11002;48.256;10.084;2023-03-01T05:57:39;21.92;;;13.05;;
21681;SDS011;11002;48.256;10.084;2023-03-01T06:00:06;22.77;;;14.10;;
21681;SDS011;11002;48.256;10.084;2023-03-01T06:02:37;22.35;;;14.65;;
21681;SDS011;11002;48.256;10.084;2023-03-01T06:05:05;23.25;;;13.75;;
21681;SDS011;11002;48.256;10.084;2023-03-01T06:07:35;23.05;;;13.40;;
21681;SDS011;11002;48.256;10.084;2023-03-01T06:10:03;24.38;;;13.68;;
21681;SDS011;11002;48.256;10.084;2023-03-01T06:12:32;24.60;;;14.55;;
21681;SDS011;11002;48.256;10.084;2023-03-01T06:15:00;25.95;;;14.18;;
21681;SDS011;11002;48.256;10.084;2023-03-01T06:17:28;24.13;;;15.05;;
21681;SDS011;11002;48.256;10.084;2023-03-01T06:19:56;23.83;;;14.52;;
21681;SDS011;11002;48.256;10.084;2023-03-01T06:22:24;21.85;;;13.20;;
21681;SDS011;11002;48.256;10.084;2023-03-01T06:24:52;24.88;;;14.27;;
21681;SDS011;11002;48.256;10.084;2023-03-01T06:27:20;23.75;;;14.70;;
21681;SDS011;11002;48.256;10.084;2023-03-01T06:29:47;27.08;;;15.20;;
21681;SDS011;11002;48.256;10.084;2023-03-01T06:32:15;23.67;;;15.05;;
21681;SDS011;11002;48.256;10.084;2023-03-01T06:34:42;24.67;;;14.55;;
21681;SDS011;11002;48.256;10.084;2023-03-01T06:37:10;27.73;;;14.88;;
21681;SDS011;11002;48.256;10.084;2023-03-01T06:39:37;23.88;;;14.20;;
21681;SDS011;11002;48.256;10.084;2023-03-01T06:42:06;22.48;;;13.55;;
21681;SDS011;11002;48.256;10.084;2023-03-01T06:44:35;21.77;;;14.18;;
21681;SDS011;11002;48.256;10.084;2023-03-01T06:47:06;22.20;;;14.38;;
21681;SDS011;11002;48.256;10.084;2023-03-01T06:49:33;25.83;;;12.85;;
21681;SDS011;11002;48.256;10.084;2023-03-01T06:52:00;22.80;;;13.73;;
21681;SDS011;11002;48.256;10.084;2023-03-01T06:54:28;23.80;;;15.18;;
21681;SDS011;11002;48.256;10.084;2023-03-01T06:56:55;24.27;;;13.85;;
21681;SDS011;11002;48.256;10.084;2023-03-01T06:59:24;25.42;;;14.25;;
21681;SDS011;11002;48.256;10.084;2023-03-01T07:01:51;24.83;;;14.55;;
21681;SDS011;11002;48.256;10.084;2023-03-01T07:04:19;22.80;;;13.88;;
21681;SDS011;11002;48.256;10.084;2023-03-01T07:06:46;22.60;;;15.07;;
21681;SDS011;11002;48.256;10.084;2023-03-01T07:09:20;26.23;;;14.35;;
21681;SDS011;11002;48.256;10.084;2023-03-01T07:11:48;24.25;;;15.10;;
21681;SDS011;11002;48.256;10.084;2023-03-01T07:14:15;24.23;;;15.13;;
21681;SDS011;11002;48.256;10.084;2023-03-01T07:16:46;20.67;;;15.15;;
21681;SDS011;11002;48.256;10.084;2023-03-01T07:19:13;30.55;;;15.02;;
21681;SDS011;11002;48.256;10.084;2023-03-01T07:21:41;22.33;;;15.82;;
21681;SDS011;11002;48.256;10.084;2023-03-01T07:24:08;23.95;;;15.27;;
21681;SDS011;11002;48.256;10.084;2023-03-01T07:26:36;26.23;;;14.43;;
21681;SDS011;11002;48.256;10.084;2023-03-01T07:29:04;24.73;;;15.48;;
21681;SDS011;11002;48.256;10.084;2023-03-01T07:31:32;25.08;;;15.10;;
21681;SDS011;11002;48.256;10.084;2023-03-01T07:34:01;24.52;;;14.80;;
21681;SDS011;11002;48.256;10.084;2023-03-01T07:36:29;25.38;;;15.88;;
21681;SDS011;11002;48.256;10.084;2023-03-01T07:38:56;27.77;;;14.57;;
21681;SDS011;11002;48.256;10.084;2023-03-01T07:41:23;23.88;;;13.65;;
21681;SDS011;11002;48.256;10.084;2023-03-01T07:43:51;25.08;;;15.30;;
21681;SDS011;11002;48.256;10.084;2023-03-01T07:46:18;22.42;;;14.02;;
21681;SDS011;11002;48.256;10.084;2023-03-01T07:48:46;26.90;;;15.95;;
21681;SDS011;11002;48.256;10.084;2023-03-01T07:51:14;26.90;;;15.90;;
21681;SDS011;11002;48.256;10.084;2023-03-01T07:53:42;27.15;;;15.10;;
21681;SDS011;11002;48.256;10.084;2023-03-01T07:56:13;23.13;;;14.65;;
21681;SDS011;11002;48.256;10.084;2023-03-01T07:58:43;25.00;;;15.13;;
21681;SDS011;11002;48.256;10.084;2023-03-01T08:01:12;22.73;;;14.18;;
21681;SDS011;11002;48.256;10.084;2023-03-01T08:03:40;28.30;;;15.18;;
21681;SDS011;11002;48.256;10.084;2023-03-01T08:06:09;26.08;;;15.82;;
21681;SDS011;11002;48.256;10.084;2023-03-01T08:08:39;23.38;;;14.57;;
21681;SDS011;11002;48.256;10.084;2023-03-01T08:11:07;24.63;;;15.70;;
21681;SDS011;11002;48.256;10.084;2023-03-01T08:13:37;25.55;;;16.65;;
21681;SDS011;11002;48.256;10.084;2023-03-01T08:16:06;23.85;;;14.82;;
21681;SDS011;11002;48.256;10.084;2023-03-01T08:18:34;25.48;;;15.07;;
21681;SDS011;11002;48.256;10.084;2023-03-01T08:21:02;23.45;;;14.75;;
21681;SDS011;11002;48.256;10.084;2023-03-01T08:23:31;22.45;;;15.20;;
21681;SDS011;11002;48.256;10.084;2023-03-01T08:26:07;26.88;;;15.85;;
21681;SDS011;11002;48.256;10.084;2023-03-01T08:28:37;26.42;;;15.23;;
21681;SDS011;11002;48.256;10.084;2023-03-01T08:31:12;24.83;;;14.57;;
21681;SDS011;11002;48.256;10.084;2023-03-01T08:33:40;24.92;;;15.73;;
21681;SDS011;11002;48.256;10.084;2023-03-01T08:36:08;24.85;;;15.23;;
21681;SDS011;11002;48.256;10.084;2023-03-01T08:38:35;23.77;;;14.90;;
21681;SDS011;11002;48.256;10.084;2023-03-01T08:41:03;25.73;;;15.45;;
21681;SDS011;11002;48.256;10.084;2023-03-01T08:43:32;30.23;;;16.70;;
21681;SDS011;11002;48.256;10.084;2023-03-01T08:45:59;28.63;;;16.58;;
21681;SDS011;11002;48.256;10.084;2023-03-01T08:48:27;26.23;;;15.50;;
21681;SDS011;11002;48.256;10.084;2023-03-01T08:50:55;21.23;;;14.73;;
21681;SDS011;11002;48.256;10.084;2023-03-01T08:53:22;23.92;;;15.65;;
21681;SDS011;11002;48.256;10.084;2023-03-01T08:55:49;25.45;;;15.48;;
21681;SDS011;11002;48.256;10.084;2023-03-01T08:58:17;24.33;;;15.50;;
21681;SDS011;11002;48.256;10.084;2023-03-01T09:00:46;26.42;;;15.73;;
21681;SDS011;11002;48.256;10.084;2023-03-01T09:03:13;29.65;;;17.10;;
21681;SDS011;11002;48.256;10.084;2023-03-01T09:05:40;24.35;;;14.88;;
21681;SDS011;11002;48.256;10.084;2023-03-01T09:08:08;24.10;;;16.02;;
21681;SDS011;11002;48.256;10.084;2023-03-01T09:10:37;23.55;;;15.70;;
21681;SDS011;11002;48.256;10.084;2023-03-01T09:13:04;23.92;;;15.27;;
21681;SDS011;11002;48.256;10.084;2023-03-01T09:15:32;25.58;;;15.10;;
21681;SDS011;11002;48.256;10.084;2023-03-01T09:18:01;30.55;;;15.35;;
21681;SDS011;11002;48.256;10.084;2023-03-01T09:20:28;25.77;;;15.43;;
21681;SDS011;11002;48.256;10.084;2023-03-01T09:22:57;26.67;;;15.13;;
21681;SDS011;11002;48.256;10.084;2023-03-01T09:25:24;26.77;;;13.68;;
21681;SDS011;11002;48.256;10.084;2023-03-01T09:27:52;28.77;;;15.85;;
21681;SDS011;11002;48.256;10.084;2023-03-01T09:30:20;24.80;;;14.95;;
21681;SDS011;11002;48.256;10.084;2023-03-01T09:32:48;24.65;;;14.77;;
21681;SDS011;11002;48.256;10.084;2023-03-01T09:35:16;25.55;;;15.07;;
21681;SDS011;11002;48.256;10.084;2023-03-01T09:37:45;25.98;;;14.10;;
21681;SDS011;11002;48.256;10.084;2023-03-01T09:40:16;25.33;;;15.80;;
21681;SDS011;11002;48.256;10.084;2023-03-01T09:42:47;34.67;;;15.32;;
21681;SDS011;11002;48.256;10.084;2023-03-01T09:45:23;25.77;;;15.50;;
21681;SDS011;11002;48.256;10.084;2023-03-01T09:47:54;25.95;;;15.45;;
21681;SDS011;11002;48.256;10.084;2023-03-01T09:50:31;28.52;;;16.50;;
21681;SDS011;11002;48.256;10.084;2023-03-01T09:53:02;27.50;;;16.05;;
21681;SDS011;11002;48.256;10.084;2023-03-01T09:55:33;27.67;;;16.58;;
21681;SDS011;11002;48.256;10.084;2023-03-01T09:58:16;27.70;;;15.57;;
21681;SDS011;11002;48.256;10.084;2023-03-01T10:00:56;33.50;;;18.33;;
21681;SDS011;11002;48.256;10.084;2023-03-01T10:03:33;24.33;;;15.10;;
21681;SDS011;11002;48.256;10.084;2023-03-01T10:06:08;34.42;;;17.35;;
21681;SDS011;11002;48.256;10.084;2023-03-01T10:08:41;25.73;;;15.80;;
21681;SDS011;11002;48.256;10.084;2023-03-01T10:11:19;27.02;;;17.23;;
21681;SDS011;11002;48.256;10.084;2023-03-01T10:13:50;28.15;;;16.40;;
21681;SDS011;11002;48.256;10.084;2023-03-01T10:16:28;34.45;;;17.27;;
21681;SDS011;11002;48.256;10.084;2023-03-01T10:19:10;28.00;;;16.38;;
21681;SDS011;11002;48.256;10.084;2023-03-01T10:21:51;26.33;;;16.08;;
21681;SDS011;11002;48.256;10.084;2023-03-01T10:24:19;26.65;;;16.35;;
21681;SDS011;11002;48.256;10.084;2023-03-01T10:26:48;27.55;;;16.40;;
21681;SDS011;11002;48.256;10.084;2023-03-01T10:29:23;28.13;;;16.60;;
21681;SDS011;11002;48.256;10.084;2023-03-01T10:31:56;29.30;;;16.50;;
21681;SDS011;11002;48.256;10.084;2023-03-01T10:34:27;25.40;;;15.85;;
21681;SDS011;11002;48.256;10.084;2023-03-01T10:36:58;24.92;;;17.90;;
21681;SDS011;11002;48.256;10.084;2023-03-01T10:39:35;27.05;;;16.60;;
21681;SDS011;11002;48.256;10.084;2023-03-01T10:42:03;25.13;;;16.55;;
21681;SDS011;11002;48.256;10.084;2023-03-01T10:44:36;30.58;;;16.92;;
21681;SDS011;11002;48.256;10.084;2023-03-01T10:47:08;28.17;;;16.50;;
21681;SDS011;11002;48.256;10.084;2023-03-01T10:49:52;21.98;;;15.60;;
21681;SDS011;11002;48.256;10.084;2023-03-01T10:52:24;26.08;;;16.25;;
21681;SDS011;11002;48.256;10.084;2023-03-01T10:54:55;28.10;;;16.27;;
21681;SDS011;11002;48.256;10.084;2023-03-01T10:57:34;26.15;;;16.02;;
21681;SDS011;11002;48.256;10.084;2023-03-01T11:05:49;24.65;;;14.77;;
21681;SDS011;11002;48.256;10.084;2023-03-01T11:11:21;23.65;;;15.05;;
21681;SDS011;11002;48.256;10.084;2023-03-01T11:13:56;26.55;;;15.57;;
21681;SDS011;11002;48.256;10.084;2023-03-01T11:16:26;24.92;;;15.88;;
21681;SDS011;11002;48.256;10.084;2023-03-01T11:19:15;24.58;;;15.45;;
21681;SDS011;11002;48.256;10.084;2023-03-01T11:21:51;25.10;;;15.70;;
21681;SDS011;11002;48.256;10.084;2023-03-01T11:24:26;25.85;;;15.90;;
21681;SDS011;11002;48.256;10.084;2023-03-01T11:26:56;24.42;;;15.15;;
21681;SDS011;11002;48.256;10.084;2023-03-01T11:29:31;23.90;;;13.82;;
21681;SDS011;11002;48.256;10.084;2023-03-01T11:32:04;22.60;;;14.38;;
21681;SDS011;11002;48.256;10.084;2023-03-01T11:34:39;22.27;;;14.90;;
21681;SDS011;11002;48.256;10.084;2023-03-01T11:37:19;21.73;;;14.50;;
21681;SDS011;11002;48.256;10.084;2023-03-01T11:39:57;20.23;;;14.25;;
21681;SDS011;11002;48.256;10.084;2023-03-01T11:42:33;22.27;;;14.52;;
21681;SDS011;11002;48.256;10.084;2023-03-01T11:45:10;21.58;;;14.07;;
21681;SDS011;11002;48.256;10.084;2023-03-01T11:47:42;22.52;;;15.02;;
21681;SDS011;11002;48.256;10.084;2023-03-01T11:50:26;21.73;;;14.27;;
21681;SDS011;11002;48.256;10.084;2023-03-01T11:53:00;21.20;;;14.73;;
21681;SDS011;11002;48.256;10.084;2023-03-01T11:55:46;22.05;;;14.68;;
21681;SDS011;11002;48.256;10.084;2023-03-01T11:58:38;21.52;;;13.98;;
21681;SDS011;11002;48.256;10.084;2023-03-01T12:01:21;19.90;;;12.82;;
21681;SDS011;11002;48.256;10.084;2023-03-01T12:04:25;21.92;;;16.17;;
21681;SDS011;11002;48.256;10.084;2023-03-01T12:07:16;24.25;;;15.60;;
21681;SDS011;11002;48.256;10.084;2023-03-01T12:09:50;21.85;;;15.00;;
21681;SDS011;11002;48.256;10.084;2023-03-01T12:12:28;20.38;;;14.52;;
21681;SDS011;11002;48.256;10.084;2023-03-01T12:18:06;22.25;;;14.88;;
21681;SDS011;11002;48.256;10.084;2023-03-01T12:20:54;20.65;;;14.73;;
21681;SDS011;11002;48.256;10.084;2023-03-01T12:23:46;23.63;;;15.80;;
21681;SDS011;11002;48.256;10.084;2023-03-01T12:26:29;22.67;;;15.57;;
21681;SDS011;11002;48.256;10.084;2023-03-01T12:29:05;22.10;;;14.65;;
21681;SDS011;11002;48.256;10.084;2023-03-01T12:31:47;19.92;;;14.55;;
21681;SDS011;11002;48.256;10.084;2023-03-01T12:34:39;25.23;;;16.48;;
21681;SDS011;11002;48.256;10.084;2023-03-01T12:37:41;26.77;;;15.27;;
21681;SDS011;11002;48.256;10.084;2023-03-01T12:40:33;26.02;;;17.52;;
21681;SDS011;11002;48.256;10.084;2023-03-01T12:43:22;26.67;;;16.02;;
21681;SDS011;11002;48.256;10.084;2023-03-01T12:46:08;24.50;;;15.00;;
21681;SDS011;11002;48.256;10.084;2023-03-01T12:48:47;20.45;;;15.43;;
21681;SDS011;11002;48.256;10.084;2023-03-01T12:51:26;23.55;;;15.00;;
21681;SDS011;11002;48.256;10.084;2023-03-01T12:53:57;26.75;;;18.38;;
21681;SDS011;11002;48.256;10.084;2023-03-01T12:56:28;23.92;;;17.15;;
21681;SDS011;11002;48.256;10.084;2023-03-01T12:58:59;28.40;;;18.55;;
21681;SDS011;11002;48.256;10.084;2023-03-01T13:01:36;23.92;;;16.38;;
21681;SDS011;11002;48.256;10.084;2023-03-01T13:07:04;21.00;;;15.25;;
21681;SDS011;11002;48.256;10.084;2023-03-01T13:09:43;24.73;;;16.13;;
21681;SDS011;11002;48.256;10.084;2023-03-01T13:15:24;22.23;;;15.30;;
21681;SDS011;11002;48.256;10.084;2023-03-01T13:17:57;25.75;;;16.88;;
21681;SDS011;11002;48.256;10.084;2023-03-01T13:20:27;22.77;;;15.43;;
21681;SDS011;11002;48.256;10.084;2023-03-01T13:23:03;23.90;;;15.57;;
21681;SDS011;11002;48.256;10.084;2023-03-01T13:25:33;18.95;;;15.07;;
21681;SDS011;11002;48.256;10.084;2023-03-01T13:31:07;25.58;;;15.18;;
21681;SDS011;11002;48.256;10.084;2023-03-01T13:33:41;24.38;;;15.73;;
21681;SDS011;11002;48.256;10.084;2023-03-01T13:36:11;22.50;;;15.80;;
21681;SDS011;11002;48.256;10.084;2023-03-01T13:41:54;21.38;;;16.10;;
21681;SDS011;11002;48.256;10.084;2023-03-01T13:44:24;25.98;;;18.48;;
21681;SDS011;11002;48.256;10.084;2023-03-01T13:46:56;24.52;;;17.05;;
21681;SDS011;11002;48.256;10.084;2023-03-01T13:49:27;20.92;;;14.85;;
21681;SDS011;11002;48.256;10.084;2023-03-01T13:51:55;20.20;;;14.18;;
21681;SDS011;11002;48.256;10.084;2023-03-01T13:54:26;22.77;;;14.98;;
21681;SDS011;11002;48.256;10.084;2023-03-01T13:56:56;22.23;;;14.13;;
21681;SDS011;11002;48.256;10.084;2023-03-01T13:59:26;19.10;;;14.30;;
21681;SDS011;11002;48.256;10.084;2023-03-01T14:01:56;20.73;;;15.00;;
21681;SDS011;11002;48.256;10.084;2023-03-01T14:04:25;20.92;;;15.32;;
21681;SDS011;11002;48.256;10.084;2023-03-01T14:07:08;21.77;;;14.80;;
21681;SDS011;11002;48.256;10.084;2023-03-01T14:09:39;23.23;;;15.65;;
21681;SDS011;11002;48.256;10.084;2023-03-01T14:12:18;22.75;;;15.18;;
21681;SDS011;11002;48.256;10.084;2023-03-01T14:15:04;20.75;;;15.35;;
21681;SDS011;11002;48.256;10.084;2023-03-01T14:17:43;21.85;;;15.82;;
21681;SDS011;11002;48.256;10.084;2023-03-01T14:20:20;22.38;;;14.93;;
21681;SDS011;11002;48.256;10.084;2023-03-01T14:22:49;21.63;;;15.27;;
21681;SDS011;11002;48.256;10.084;2023-03-01T14:25:21;20.30;;;14.60;;
21681;SDS011;11002;48.256;10.084;2023-03-01T14:27:51;25.30;;;15.65;;
21681;SDS011;11002;48.256;10.084;2023-03-01T14:30:23;19.95;;;14.20;;
21681;SDS011;11002;48.256;10.084;2023-03-01T14:32:54;24.63;;;15.02;;
21681;SDS011;11002;48.256;10.084;2023-03-01T14:35:23;20.75;;;15.13;;
21681;SDS011;11002;48.256;10.084;2023-03-01T14:37:52;20.83;;;15.45;;
21681;SDS011;11002;48.256;10.084;2023-03-01T14:40:22;21.10;;;15.45;;
21681;SDS011;11002;48.256;10.084;2023-03-01T14:42:51;19.83;;;14.02;;
21681;SDS011;11002;48.256;10.084;2023-03-01T14:45:20;22.17;;;15.10;;
21681;SDS011;11002;48.256;10.084;2023-03-01T14:47:48;21.52;;;14.60;;
21681;SDS011;11002;48.256;10.084;2023-03-01T14:50:19;22.63;;;14.32;;
21681;SDS011;11002;48.256;10.084;2023-03-01T14:52:52;24.08;;;16.27;;
21681;SDS011;11002;48.256;10.084;2023-03-01T14:55:24;25.55;;;15.18;;
21681;SDS011;11002;48.256;10.084;2023-03-01T14:57:54;22.98;;;14.57;;